Time;durP1;ratioP1;P1;durP2;ratioP2;P2;SDS_P1;SDS_P2;PMS_P1;PMS_P2;Temp;Humidity;BMP_temperature;BMP_pressure;BME280_temperature;BME280_humidity;BME280_pressure;Samples;Min_cycle;Max_cycle;Signal;HPM_P1;HPM_P2
2023/12/03 00:02:13;;;;;;;2.30;1.50;;;;;;;16.35;40.57;93105.94;5052741;28;20028;-90
2023/12/03 00:04:41;;;;;;;2.38;1.48;;;;;;;16.40;40.73;93085.31;5079519;28;20085;-90
2023/12/03 00:07:06;;;;;;;2.10;1.75;;;;;;;16.38;40.83;93101.44;5058003;28;20464;-89
2023/12/03 00:09:31;;;;;;;1.40;1.20;;;;;;;16.42;41.02;93099.94;5049181;28;20270;-90
2023/12/03 00:11:57;;;;;;;1.67;1.30;;;;;;;16.39;40.82;93109.13;5073573;28;20031;-92
2023/12/03 00:14:22;;;;;;;2.03;1.45;;;;;;;16.39;41.23;93103.69;5063788;28;20028;-90
2023/12/03 00:16:48;;;;;;;1.50;1.40;;;;;;;16.41;41.09;93112.09;5037298;28;20036;-89
2023/12/03 00:19:13;;;;;;;1.85;1.65;;;;;;;16.49;40.74;93114.28;5077432;28;20033;-92
2023/12/03 00:21:38;;;;;;;1.38;1.17;;;;;;;16.46;40.92;93124.19;5070416;28;20035;-90
2023/12/03 00:24:05;;;;;;;1.95;1.20;;;;;;;16.37;40.67;93124.53;5036480;28;20132;-90
2023/12/03 00:26:30;;;;;;;1.67;1.30;;;;;;;16.36;40.65;93131.22;5044483;28;20067;-90
2023/12/03 00:28:55;;;;;;;1.73;1.33;;;;;;;16.38;40.90;93134.19;5059686;28;20029;-89
2023/12/03 00:31:21;;;;;;;1.70;1.35;;;;;;;16.37;40.74;93138.91;5062614;28;20379;-92
2023/12/03 00:33:46;;;;;;;1.83;1.33;;;;;;;16.29;41.00;93142.66;5055093;28;20033;-90
2023/12/03 00:36:12;;;;;;;1.58;1.33;;;;;;;16.36;40.63;93153.03;5101668;28;20028;-90
2023/12/03 00:38:37;;;;;;;1.30;1.00;;;;;;;16.38;41.08;93154.03;5044668;28;20031;-90
2023/12/03 00:41:02;;;;;;;1.45;1.35;;;;;;;16.36;40.58;93159.25;5058226;28;20025;-90
2023/12/03 00:43:28;;;;;;;1.20;1.05;;;;;;;16.41;40.54;93158.47;5063837;28;20035;-90
2023/12/03 00:45:53;;;;;;;1.40;1.17;;;;;;;16.36;40.50;93153.78;5055898;28;20032;-91
2023/12/03 00:48:19;;;;;;;1.48;1.27;;;;;;;16.45;40.81;93163.66;5083894;28;20051;-90
2023/12/03 00:50:44;;;;;;;1.92;1.40;;;;;;;16.41;40.74;93161.19;5059213;28;20537;-90
2023/12/03 00:53:10;;;;;;;1.98;1.45;;;;;;;16.40;40.73;93158.97;5083131;28;20021;-92
2023/12/03 00:55:35;;;;;;;1.33;1.20;;;;;;;16.41;40.75;93155.00;5053532;28;20025;-89
2023/12/03 00:58:00;;;;;;;1.40;1.08;;;;;;;16.39;40.95;93171.13;5069610;28;20020;-92
2023/12/03 01:00:26;;;;;;;2.70;1.50;;;;;;;16.35;40.75;93178.84;5056828;28;20066;-89
2023/12/03 01:02:51;;;;;;;1.15;1.05;;;;;;;16.39;40.70;93185.50;5057205;28;20071;-91
2023/12/03 01:05:17;;;;;;;1.30;1.20;;;;;;;16.40;40.90;93184.28;5077671;28;20016;-92
2023/12/03 01:07:42;;;;;;;1.80;1.40;;;;;;;16.33;40.77;93190.25;5053552;28;20025;-89
2023/12/03 01:10:08;;;;;;;1.30;1.20;;;;;;;16.42;40.85;93187.25;5068899;28;20467;-90
2023/12/03 01:12:33;;;;;;;1.77;1.20;;;;;;;16.35;40.52;93204.13;5060161;28;20028;-90
2023/12/03 01:14:59;;;;;;;4.43;1.50;;;;;;;16.37;40.86;93196.19;5052193;28;20033;-92
2023/12/03 01:17:24;;;;;;;1.67;1.15;;;;;;;16.37;40.96;93203.63;5067216;28;20119;-90
2023/12/03 01:19:50;;;;;;;1.50;1.30;;;;;;;16.45;40.93;93199.84;5054949;28;20025;-90
2023/12/03 01:22:15;;;;;;;1.85;1.50;;;;;;;16.37;41.00;93203.63;5065648;28;20506;-90
2023/12/03 01:24:41;;;;;;;1.35;1.00;;;;;;;16.32;40.74;93207.84;5063005;28;20052;-91
2023/12/03 01:27:06;;;;;;;2.03;1.13;;;;;;;16.34;40.71;93212.81;5063727;28;20035;-91
2023/12/03 01:29:32;;;;;;;1.55;1.25;;;;;;;16.34;40.90;93221.00;5073119;28;20020;-91
2023/12/03 01:31:58;;;;;;;4.35;1.35;;;;;;;16.37;40.64;93211.81;5052164;28;20027;-89
2023/12/03 01:34:23;;;;;;;1.10;1.00;;;;;;;16.32;40.93;93216.03;5059019;28;20028;-90
2023/12/03 01:36:49;;;;;;;1.02;0.93;;;;;;;16.43;40.58;93226.19;5062139;28;20032;-90
2023/12/03 01:39:14;;;;;;;1.40;1.20;;;;;;;16.43;40.82;93237.84;5065448;28;20077;-90
2023/12/03 01:41:40;;;;;;;1.67;1.50;;;;;;;16.36;40.72;93234.88;5053112;28;20100;-90
2023/12/03 01:44:06;;;;;;;1.48;1.23;;;;;;;16.32;40.83;93237.84;5064734;28;20025;-89
2023/12/03 01:46:31;;;;;;;2.15;1.45;;;;;;;16.36;40.63;93221.25;5059758;28;20023;-89
2023/12/03 01:48:57;;;;;;;1.45;1.17;;;;;;;16.31;40.57;93232.91;5061058;28;20025;-90
2023/12/03 01:51:22;;;;;;;1.42;1.13;;;;;;;16.32;40.86;93235.13;5056085;28;20024;-90
2023/12/03 01:53:47;;;;;;;1.23;1.13;;;;;;;16.40;40.72;93238.84;5053324;28;20029;-90
2023/12/03 01:56:13;;;;;;;1.42;1.10;;;;;;;16.37;40.85;93233.63;5065566;28;20031;-92
2023/12/03 01:58:39;;;;;;;1.30;1.20;;;;;;;16.36;40.26;93238.34;5077241;28;20028;-90
2023/12/03 02:01:05;;;;;;;1.30;1.10;;;;;;;16.35;40.59;93241.56;5077166;28;20028;-89
2023/12/03 02:03:31;;;;;;;1.25;1.10;;;;;;;16.37;40.36;93239.84;5083841;28;20055;-90
2023/12/03 02:06:06;;;;;;;3.50;1.63;;;;;;;16.39;40.81;93242.06;5072078;28;20474;-89
2023/12/03 02:08:31;;;;;;;1.63;1.30;;;;;;;16.37;40.44;93242.56;5076375;28;20023;-89
2023/12/03 02:10:58;;;;;;;1.30;1.15;;;;;;;16.41;40.60;93248.50;5060928;28;20479;-90
2023/12/03 02:13:23;;;;;;;2.03;1.27;;;;;;;16.44;40.34;93247.50;5067205;28;20020;-91
2023/12/03 02:15:49;;;;;;;1.58;1.30;;;;;;;16.40;40.43;93251.72;5054492;28;20043;-89
2023/12/03 02:18:14;;;;;;;1.60;1.10;;;;;;;16.33;40.43;93265.88;5083536;28;20016;-90
2023/12/03 02:20:40;;;;;;;1.30;1.13;;;;;;;16.33;40.58;93276.78;5060630;28;20493;-91
2023/12/03 02:23:05;;;;;;;1.40;1.20;;;;;;;16.36;40.72;93278.53;5059404;28;20029;-93
2023/12/03 02:25:31;;;;;;;1.50;1.17;;;;;;;16.40;40.49;93289.94;5067520;28;20036;-90
2023/12/03 02:27:56;;;;;;;1.67;1.35;;;;;;;16.42;40.48;93293.66;5054439;28;20077;-90
2023/12/03 02:30:21;;;;;;;1.98;1.15;;;;;;;16.44;40.20;93282.97;5065714;28;20248;-91
2023/12/03 02:32:47;;;;;;;0.90;0.80;;;;;;;16.39;40.64;93278.28;5078533;28;20077;-89
2023/12/03 02:35:13;;;;;;;1.38;1.05;;;;;;;16.34;40.44;93268.09;5042010;28;20109;-94
2023/12/03 02:37:38;;;;;;;1.63;1.02;;;;;;;16.39;40.02;93270.09;5067124;28;20020;-91
2023/12/03 02:40:05;;;;;;;1.33;1.00;;;;;;;16.39;40.47;93274.78;5051494;28;20028;-90
2023/12/03 02:42:30;;;;;;;1.00;0.90;;;;;;;16.41;40.17;93275.03;5059145;28;20107;-90
2023/12/03 02:44:56;;;;;;;1.40;1.20;;;;;;;16.44;40.26;93279.50;5057533;28;20037;-92
2023/12/03 02:47:21;;;;;;;1.10;1.00;;;;;;;16.39;40.53;93282.97;5064276;28;20035;-93
2023/12/03 02:49:46;;;;;;;1.52;1.10;;;;;;;16.32;40.66;93278.78;5057585;28;20040;-91
2023/12/03 02:52:13;;;;;;;2.05;1.33;;;;;;;16.39;40.28;93281.00;5073988;28;20090;-92
2023/12/03 02:54:38;;;;;;;1.15;1.00;;;;;;;16.28;40.71;93270.09;5051566;28;20029;-90
2023/12/03 02:57:05;;;;;;;1.45;1.25;;;;;;;16.30;40.45;93280.50;5076157;28;20024;-90
2023/12/03 02:59:31;;;;;;;1.60;1.20;;;;;;;16.37;40.61;93288.94;5056622;28;20071;-91
2023/12/03 03:01:56;;;;;;;1.25;0.93;;;;;;;16.40;40.62;93287.19;5071220;28;20441;-90
2023/12/03 03:04:22;;;;;;;2.30;1.40;;;;;;;16.34;40.71;93300.09;5060830;28;20119;-90
2023/12/03 03:06:47;;;;;;;1.27;1.05;;;;;;;16.34;40.43;93294.66;5057230;28;20484;-90
2023/12/03 03:09:13;;;;;;;1.02;0.93;;;;;;;16.38;40.31;93304.06;5058894;28;20067;-89
2023/12/03 03:11:38;;;;;;;1.13;1.00;;;;;;;16.43;40.15;93313.47;5071569;28;20023;-91
2023/12/03 03:14:03;;;;;;;1.10;0.90;;;;;;;16.34;40.36;93311.75;5058745;28;20028;-89
2023/12/03 03:16:29;;;;;;;1.23;1.10;;;;;;;16.40;39.97;93319.94;5064532;28;20380;-93
2023/12/03 03:18:54;;;;;;;0.82;0.80;;;;;;;16.40;40.10;93328.13;5065187;28;20032;-90
2023/12/03 03:21:20;;;;;;;1.25;1.13;;;;;;;16.35;40.22;93328.88;5057523;28;20025;-90
2023/12/03 03:23:45;;;;;;;2.00;1.38;;;;;;;16.37;40.51;93337.31;5086349;28;20542;-93
2023/12/03 03:26:11;;;;;;;1.00;0.90;;;;;;;16.38;40.50;93325.16;5043089;28;20024;-90
2023/12/03 03:28:36;;;;;;;1.10;1.00;;;;;;;16.40;39.71;93333.56;5062622;28;20024;-93
2023/12/03 03:31:02;;;;;;;1.13;1.02;;;;;;;16.39;40.43;93340.28;5061606;28;20471;-94
2023/12/03 03:33:27;;;;;;;1.27;1.17;;;;;;;16.41;40.07;93341.25;5059478;28;20029;-90
2023/12/03 03:35:52;;;;;;;1.15;0.93;;;;;;;16.38;40.66;93345.00;5070988;28;20073;-91
2023/12/03 03:38:18;;;;;;;2.00;1.40;;;;;;;16.42;40.08;93353.66;5043986;28;20399;-90
2023/12/03 03:40:43;;;;;;;1.60;1.20;;;;;;;16.41;40.02;93354.16;5082307;28;20021;-90
2023/12/03 03:43:10;;;;;;;2.00;1.40;;;;;;;16.33;40.40;93351.19;5083508;28;20035;-91
2023/12/03 03:45:35;;;;;;;1.23;1.10;;;;;;;16.34;40.19;93357.38;5074708;28;20039;-92
2023/12/03 03:48:00;;;;;;;1.65;1.30;;;;;;;16.37;40.56;93357.13;5070657;28;20029;-93
2023/12/03 03:50:26;;;;;;;1.63;1.27;;;;;;;16.33;40.52;93367.56;5044510;28;20047;-90
2023/12/03 03:52:51;;;;;;;1.35;1.20;;;;;;;16.35;40.30;93372.50;5081700;28;20024;-90
2023/12/03 03:55:17;;;;;;;1.23;1.02;;;;;;;16.34;40.26;93362.84;5076515;28;20395;-89
2023/12/03 03:57:42;;;;;;;1.75;1.30;;;;;;;16.40;40.00;93377.97;5063689;28;20490;-90
2023/12/03 04:00:09;;;;;;;1.38;1.00;;;;;;;16.33;40.24;93392.09;5050111;28;20025;-89
2023/12/03 04:02:34;;;;;;;1.40;1.20;;;;;;;16.34;40.17;93388.13;5050453;28;20040;-90
2023/12/03 04:04:59;;;;;;;1.77;1.40;;;;;;;16.34;40.29;93390.13;5059307;28;20029;-90
2023/12/03 04:07:25;;;;;;;1.98;1.00;;;;;;;16.41;40.12;93392.34;5055201;28;20383;-89
2023/12/03 04:09:50;;;;;;;1.35;1.08;;;;;;;16.38;40.14;93380.44;5070356;28;20021;-89
2023/12/03 04:12:16;;;;;;;1.23;1.13;;;;;;;16.39;40.37;93381.94;5043347;28;20024;-91
2023/12/03 04:14:41;;;;;;;1.27;1.10;;;;;;;16.33;40.47;93389.38;5061612;28;20029;-90
2023/12/03 04:17:08;;;;;;;0.85;0.80;;;;;;;16.37;40.04;93378.97;5058624;28;20032;-91
2023/12/03 04:19:33;;;;;;;1.27;1.00;;;;;;;16.36;39.80;93384.91;5057538;28;20116;-89
2023/12/03 04:21:59;;;;;;;1.52;1.23;;;;;;;16.41;40.14;93386.91;5070580;28;20017;-91
2023/12/03 04:24:24;;;;;;;1.52;1.20;;;;;;;16.31;40.38;93380.94;5060177;28;20047;-89
2023/12/03 04:26:50;;;;;;;1.00;0.85;;;;;;;16.42;40.18;93383.69;5079907;28;20078;-90
2023/12/03 04:29:15;;;;;;;1.30;1.10;;;;;;;16.39;40.06;93390.13;5067855;28;20031;-92
2023/12/03 04:31:41;;;;;;;1.55;1.10;;;;;;;16.39;40.08;93398.31;5055892;28;20036;-92
2023/12/03 04:34:07;;;;;;;1.40;1.15;;;;;;;16.41;40.40;93403.28;5040902;28;20047;-91
2023/12/03 04:36:33;;;;;;;1.60;1.30;;;;;;;16.38;40.20;93394.09;5062258;28;20058;-90
2023/12/03 04:38:58;;;;;;;2.15;1.00;;;;;;;16.28;40.25;93398.31;5065149;28;20024;-90
2023/12/03 04:41:23;;;;;;;2.70;1.40;;;;;;;16.36;39.97;93406.75;5055835;28;20031;-90
2023/12/03 04:43:49;;;;;;;1.85;0.93;;;;;;;16.39;40.29;93406.50;5067851;28;20475;-89
2023/12/03 04:46:14;;;;;;;1.42;1.17;;;;;;;16.33;40.26;93413.19;5052565;28;20029;-92
2023/12/03 04:48:40;;;;;;;1.40;1.10;;;;;;;16.30;40.11;93408.72;5056723;28;20031;-89
2023/12/03 04:51:06;;;;;;;1.17;1.00;;;;;;;16.31;40.59;93412.94;5060158;28;20017;-91
2023/12/03 04:53:31;;;;;;;1.73;1.25;;;;;;;16.31;40.34;93410.22;5068982;28;20035;-90
2023/12/03 04:55:57;;;;;;;1.17;1.08;;;;;;;16.34;40.02;93415.41;5055781;28;20387;-89
2023/12/03 04:58:22;;;;;;;1.67;1.33;;;;;;;16.32;40.16;93409.72;5065619;28;20028;-93
2023/12/03 05:00:48;;;;;;;1.48;1.23;;;;;;;16.30;40.00;93411.44;5063074;28;20111;-90
2023/12/03 05:03:13;;;;;;;1.90;1.08;;;;;;;16.29;40.35;93418.88;5049981;28;20037;-91
2023/12/03 05:05:39;;;;;;;0.98;0.88;;;;;;;16.30;40.27;93419.63;5069193;28;20031;-90
2023/12/03 05:08:04;;;;;;;1.65;1.08;;;;;;;16.28;40.41;93422.09;5039639;28;20032;-91
2023/12/03 05:10:30;;;;;;;0.93;0.82;;;;;;;16.35;40.32;93421.63;5064747;28;20020;-90
2023/12/03 05:12:55;;;;;;;1.35;0.90;;;;;;;16.29;40.32;93435.25;5097488;28;20031;-90
2023/12/03 05:15:21;;;;;;;2.38;1.00;;;;;;;16.28;40.26;93428.31;5041745;28;20032;-92
2023/12/03 05:17:46;;;;;;;1.25;0.90;;;;;;;16.28;40.01;93435.75;5085523;28;20028;-90
2023/12/03 05:20:12;;;;;;;0.93;0.80;;;;;;;16.23;39.96;93439.97;5058176;28;20028;-92
2023/12/03 05:22:37;;;;;;;1.13;0.90;;;;;;;16.25;40.27;93437.47;5062279;28;20036;-90
2023/12/03 05:25:03;;;;;;;1.70;1.40;;;;;;;16.28;39.99;93441.19;5047635;28;20047;-90
2023/12/03 05:27:28;;;;;;;1.65;1.15;;;;;;;16.35;39.79;93451.63;5073577;28;20082;-89
2023/12/03 05:29:54;;;;;;;1.67;1.00;;;;;;;16.27;40.17;93459.56;5069544;28;20012;-90
2023/12/03 05:32:19;;;;;;;1.10;0.98;;;;;;;16.31;40.11;93451.88;5042184;28;20032;-90
2023/12/03 05:34:45;;;;;;;1.10;0.98;;;;;;;16.27;40.23;93456.06;5042167;28;20487;-89
2023/12/03 05:37:10;;;;;;;1.67;0.90;;;;;;;16.34;39.97;93456.34;5058001;28;20077;-91
2023/12/03 05:39:39;;;;;;;1.25;1.10;;;;;;;16.33;40.05;93454.09;5055664;28;20501;-91
2023/12/03 05:42:05;;;;;;;1.25;0.93;;;;;;;16.28;39.86;93439.22;5040282;28;20035;-92
2023/12/03 05:44:30;;;;;;;0.80;0.80;;;;;;;16.27;40.09;93451.38;5064373;28;20044;-91
2023/12/03 05:46:56;;;;;;;0.98;0.90;;;;;;;16.35;39.96;93444.19;5062446;28;20035;-90
2023/12/03 05:49:21;;;;;;;1.10;1.00;;;;;;;16.37;40.23;93462.78;5057523;28;20035;-92
2023/12/03 05:51:46;;;;;;;1.42;1.08;;;;;;;16.35;40.05;93457.09;5058252;28;20025;-90
2023/12/03 05:54:12;;;;;;;1.83;1.10;;;;;;;16.39;39.63;93460.31;5063806;28;20407;-90
2023/12/03 05:56:37;;;;;;;1.50;1.10;;;;;;;16.34;39.92;93464.53;5048865;28;20092;-89
2023/12/03 05:59:03;;;;;;;1.15;1.05;;;;;;;16.35;39.73;93470.72;5056253;28;20074;-92
2023/12/03 06:01:30;;;;;;;0.77;0.70;;;;;;;16.33;39.81;93470.47;5079777;28;20031;-90
2023/12/03 06:03:55;;;;;;;1.38;0.95;;;;;;;16.34;39.78;93478.16;5055905;28;20032;-90
2023/12/03 06:06:20;;;;;;;0.80;0.75;;;;;;;16.35;39.83;93478.91;5082639;28;20020;-91
2023/12/03 06:08:46;;;;;;;1.50;0.90;;;;;;;16.31;39.94;93472.94;5061238;28;20047;-91
2023/12/03 06:11:11;;;;;;;1.10;1.00;;;;;;;16.28;39.75;93482.13;5055496;28;20021;-90
2023/12/03 06:13:36;;;;;;;1.00;0.90;;;;;;;16.28;39.94;93477.41;5067511;28;20032;-93
2023/12/03 06:16:02;;;;;;;2.00;0.98;;;;;;;16.29;39.91;93476.16;5055657;28;20066;-89
2023/12/03 06:18:28;;;;;;;1.35;1.00;;;;;;;16.26;39.86;93466.25;5065031;28;20047;-90
2023/12/03 06:20:54;;;;;;;1.65;1.17;;;;;;;16.28;39.86;93480.13;5062900;28;20031;-91
2023/12/03 06:23:19;;;;;;;1.42;1.13;;;;;;;16.27;40.03;93478.66;5055844;28;20045;-89
2023/12/03 06:25:45;;;;;;;0.93;0.70;;;;;;;16.34;39.90;93480.88;5049856;28;20025;-90
2023/12/03 06:28:10;;;;;;;0.98;0.88;;;;;;;16.29;39.58;93480.88;5067148;28;20028;-89
2023/12/03 06:30:36;;;;;;;1.00;0.80;;;;;;;16.25;39.94;93478.41;5076852;28;20024;-90
2023/12/03 06:33:01;;;;;;;1.15;0.95;;;;;;;16.25;39.89;93470.22;5060515;28;20059;-91
2023/12/03 06:35:27;;;;;;;1.33;0.93;;;;;;;16.25;39.55;93475.66;5067112;28;20495;-90
2023/12/03 06:37:52;;;;;;;1.27;1.02;;;;;;;16.26;39.98;93476.41;5067560;28;20062;-91
2023/12/03 06:40:17;;;;;;;1.02;0.93;;;;;;;16.29;39.72;93472.69;5058060;28;20035;-91
2023/12/03 06:42:43;;;;;;;1.27;0.90;;;;;;;16.29;39.65;93480.88;5059341;28;20068;-89
2023/12/03 06:45:09;;;;;;;1.75;0.80;;;;;;;16.25;40.13;93478.41;5064249;28;20092;-89
2023/12/03 06:47:35;;;;;;;1.40;1.15;;;;;;;16.22;39.56;93473.94;5071796;28;20021;-93
2023/12/03 06:50:00;;;;;;;1.25;1.05;;;;;;;16.26;39.74;93488.06;5057602;28;20012;-90
2023/12/03 06:52:25;;;;;;;1.10;0.90;;;;;;;16.27;39.67;93481.38;5061670;28;20020;-93
2023/12/03 06:54:51;;;;;;;1.23;1.00;;;;;;;16.28;39.89;93495.75;5077641;28;20021;-92
2023/12/03 06:57:16;;;;;;;0.93;0.93;;;;;;;16.26;40.02;93487.31;5065510;28;20042;-93
2023/12/03 06:59:42;;;;;;;1.02;0.90;;;;;;;16.22;39.79;93492.31;5071719;28;20024;-90
2023/12/03 07:02:07;;;;;;;0.90;0.90;;;;;;;16.24;39.43;93496.00;5063653;28;20479;-90
2023/12/03 07:04:32;;;;;;;1.50;1.20;;;;;;;16.23;39.74;93505.44;5059045;28;20569;-90
2023/12/03 07:06:59;;;;;;;0.70;0.70;;;;;;;16.21;39.66;93507.91;5056505;28;20032;-89
2023/12/03 07:09:25;;;;;;;1.10;0.90;;;;;;;16.24;40.04;93515.09;5078621;28;20034;-91
2023/12/03 07:11:50;;;;;;;1.85;1.10;;;;;;;16.22;39.88;93520.31;5053839;28;20021;-89
2023/12/03 07:14:16;;;;;;;1.13;1.00;;;;;;;16.27;39.62;93518.81;5081242;28;20032;-90
2023/12/03 07:16:41;;;;;;;1.08;0.90;;;;;;;16.30;39.98;93518.56;5060319;28;20027;-92
2023/12/03 07:19:06;;;;;;;1.13;0.93;;;;;;;16.27;39.95;93516.84;5075910;28;20028;-90
2023/12/03 07:21:33;;;;;;;1.02;0.93;;;;;;;16.30;39.54;93515.84;5084364;28;20031;-90
2023/12/03 07:23:59;;;;;;;1.08;0.95;;;;;;;16.22;39.86;93508.66;5054516;28;20040;-93
2023/12/03 07:26:24;;;;;;;1.10;1.00;;;;;;;16.23;39.61;93508.16;5060702;28;20017;-90
2023/12/03 07:28:49;;;;;;;1.13;1.00;;;;;;;16.23;39.43;93516.34;5067915;28;20028;-90
2023/12/03 07:31:15;;;;;;;1.17;1.08;;;;;;;16.22;39.58;93523.03;5055818;28;20475;-90
2023/12/03 07:33:41;;;;;;;1.38;0.90;;;;;;;16.30;39.32;93529.50;5070895;28;20583;-90
2023/12/03 07:36:08;;;;;;;1.02;0.90;;;;;;;16.35;39.88;93536.94;5059623;28;20427;-91
2023/12/03 07:38:33;;;;;;;1.25;0.88;;;;;;;16.36;39.33;93540.41;5048757;28;20563;-90
2023/12/03 07:40:59;;;;;;;0.85;0.85;;;;;;;16.25;39.84;93537.66;5049464;28;20032;-90
2023/12/03 07:43:25;;;;;;;1.17;0.98;;;;;;;16.24;39.90;93539.63;5060096;28;20031;-90
2023/12/03 07:45:50;;;;;;;1.00;0.90;;;;;;;16.28;39.65;93553.78;5087636;28;20375;-90
2023/12/03 07:48:15;;;;;;;1.10;1.00;;;;;;;16.26;39.88;93539.16;5058413;28;20040;-90
2023/12/03 07:50:41;;;;;;;1.30;1.08;;;;;;;16.28;39.48;93553.03;5060287;28;20043;-90
2023/12/03 07:53:06;;;;;;;0.98;0.80;;;;;;;16.24;39.69;93553.28;5058447;28;20025;-91
2023/12/03 07:55:33;;;;;;;1.45;1.13;;;;;;;16.31;39.34;93552.81;5069883;28;20093;-89
2023/12/03 07:57:58;;;;;;;1.30;1.00;;;;;;;16.32;39.33;93548.09;5057520;28;20035;-90
2023/12/03 08:00:24;;;;;;;1.10;0.93;;;;;;;16.27;39.82;93557.00;5067603;28;20438;-90
2023/12/03 08:02:49;;;;;;;1.30;1.05;;;;;;;16.31;39.64;93557.50;5044803;28;20169;-93
2023/12/03 08:05:15;;;;;;;1.05;0.82;;;;;;;16.27;39.54;93570.66;5054687;28;20050;-92
2023/12/03 08:07:40;;;;;;;1.00;0.90;;;;;;;16.29;39.40;93573.63;5070765;28;20032;-91
2023/12/03 08:10:06;;;;;;;1.02;0.93;;;;;;;16.26;39.44;93569.91;5041720;28;20020;-93
2023/12/03 08:12:32;;;;;;;1.17;0.90;;;;;;;16.26;39.58;93571.88;5051083;28;20035;-93
2023/12/03 08:14:58;;;;;;;1.08;0.80;;;;;;;16.22;39.69;93574.13;5064582;28;20040;-91
2023/12/03 08:17:23;;;;;;;1.17;1.08;;;;;;;16.29;39.27;93571.66;5070236;28;20024;-89
2023/12/03 08:19:49;;;;;;;1.27;1.17;;;;;;;16.28;39.06;93575.59;5070105;28;20028;-91
2023/12/03 08:22:14;;;;;;;1.00;0.90;;;;;;;16.29;39.20;93579.09;5059580;28;20032;-92
2023/12/03 08:24:39;;;;;;;1.20;1.00;;;;;;;16.27;39.35;93574.13;5064370;28;20052;-91
2023/12/03 08:27:05;;;;;;;1.27;0.82;;;;;;;16.29;39.40;93568.91;5082786;28;20413;-91
2023/12/03 08:29:31;;;;;;;1.13;1.00;;;;;;;16.31;39.26;93585.53;5053876;28;20025;-90
2023/12/03 08:31:56;;;;;;;1.67;1.17;;;;;;;16.30;39.58;93592.22;5086936;28;20082;-94
2023/12/03 08:34:22;;;;;;;1.15;0.98;;;;;;;16.29;39.49;93600.91;5076209;28;20074;-89
2023/12/03 08:36:47;;;;;;;1.30;1.05;;;;;;;16.29;39.48;93600.91;5080649;28;20126;-90
2023/12/03 08:39:13;;;;;;;1.10;1.00;;;;;;;16.36;39.18;93606.63;5067139;28;20487;-89
2023/12/03 08:41:38;;;;;;;1.52;1.25;;;;;;;16.27;39.42;93608.84;5071357;28;20077;-92
2023/12/03 08:44:04;;;;;;;1.23;1.13;;;;;;;16.26;39.49;93610.06;5069186;28;20032;-89
2023/12/03 08:46:32;;;;;;;1.30;0.77;;;;;;;16.26;39.28;93616.28;5060525;28;20024;-89
2023/12/03 08:48:57;;;;;;;1.00;0.90;;;;;;;16.24;39.39;93620.75;5062536;28;20100;-91
2023/12/03 08:51:23;;;;;;;1.42;1.33;;;;;;;16.27;39.34;93623.22;5060107;28;20077;-91
2023/12/03 08:53:48;;;;;;;1.17;1.05;;;;;;;16.26;39.60;93618.25;5070737;28;20024;-93
2023/12/03 08:56:14;;;;;;;1.25;1.10;;;;;;;16.27;39.21;93625.94;5067754;28;20032;-90
2023/12/03 08:58:40;;;;;;;1.45;1.17;;;;;;;16.30;38.99;93618.75;5062568;28;20028;-93
2023/12/03 09:01:07;;;;;;;1.10;1.00;;;;;;;16.39;38.98;93621.28;5077726;28;20028;-90
2023/12/03 09:03:33;;;;;;;1.27;1.17;;;;;;;16.30;39.16;93621.50;5069674;28;20024;-93
2023/12/03 09:05:59;;;;;;;1.10;0.98;;;;;;;16.31;39.35;93620.25;5039393;28;20046;-91
2023/12/03 09:08:25;;;;;;;1.27;1.15;;;;;;;16.33;39.08;93618.53;5063354;28;20387;-93
2023/12/03 09:10:50;;;;;;;1.52;1.08;;;;;;;16.30;39.38;93619.50;5059507;28;20031;-91
2023/12/03 09:13:16;;;;;;;1.60;1.10;;;;;;;16.34;39.84;93624.72;5056662;28;20026;-92
2023/12/03 09:15:41;;;;;;;2.28;1.05;;;;;;;16.36;39.15;93617.56;5066142;28;20050;-91
2023/12/03 09:18:07;;;;;;;1.30;1.20;;;;;;;16.32;39.38;93633.41;5035825;28;20039;-90
2023/12/03 09:20:32;;;;;;;1.38;1.20;;;;;;;16.31;39.34;93640.09;5057818;28;20134;-91
2023/12/03 09:22:58;;;;;;;1.60;1.27;;;;;;;16.27;39.17;93631.41;5047602;28;20036;-93
2023/12/03 09:25:23;;;;;;;2.38;0.93;;;;;;;16.25;39.38;93633.88;5054168;28;20537;-91
2023/12/03 09:27:48;;;;;;;2.63;1.13;;;;;;;16.31;39.26;93633.91;5069357;28;20032;-92
2023/12/03 09:30:14;;;;;;;2.78;1.10;;;;;;;16.25;39.29;93636.59;5054212;28;20033;-93
2023/12/03 09:32:40;;;;;;;1.27;1.17;;;;;;;16.34;39.20;93641.09;5078791;28;20028;-91
2023/12/03 09:35:06;;;;;;;1.50;1.00;;;;;;;16.39;39.24;93635.66;5060784;28;20036;-92
2023/12/03 09:37:31;;;;;;;1.70;1.27;;;;;;;16.36;39.48;93639.38;5069206;28;20111;-90
2023/12/03 09:39:57;;;;;;;1.23;1.00;;;;;;;16.41;39.39;93643.38;5056366;28;20031;-90
2023/12/03 09:42:24;;;;;;;2.45;1.40;;;;;;;16.43;39.19;93641.63;5063676;28;20029;-90
2023/12/03 09:44:58;;;;;;;2.28;1.30;;;;;;;16.47;38.91;93638.66;5063564;28;20123;-92
2023/12/03 09:47:24;;;;;;;1.08;0.93;;;;;;;16.37;39.37;93640.13;5052546;28;20036;-91
2023/12/03 09:49:49;;;;;;;1.35;1.05;;;;;;;16.37;39.50;93634.66;5056335;28;20465;-91
2023/12/03 09:52:15;;;;;;;1.20;0.93;;;;;;;16.38;39.57;93634.19;5062531;28;20036;-93
2023/12/03 09:54:40;;;;;;;2.15;1.30;;;;;;;16.39;39.61;93632.94;5066292;28;20028;-91
2023/12/03 09:57:06;;;;;;;10.73;2.25;;;;;;;16.43;39.51;93638.91;5056471;28;20027;-90
2023/12/03 09:59:31;;;;;;;7.38;1.33;;;;;;;16.43;39.51;93628.00;5067906;28;20046;-89
2023/12/03 10:01:57;;;;;;;2.60;1.25;;;;;;;16.43;39.29;93640.88;5055550;28;20012;-91
2023/12/03 10:04:22;;;;;;;5.05;1.83;;;;;;;16.44;39.27;93631.47;5065956;28;20047;-89
2023/12/03 10:06:49;;;;;;;7.13;1.67;;;;;;;16.35;39.23;93634.41;5061365;28;20413;-92
2023/12/03 10:09:14;;;;;;;8.48;1.85;;;;;;;16.35;39.29;93629.69;5068550;28;20032;-90
2023/12/03 10:11:40;;;;;;;7.75;2.38;;;;;;;16.37;39.28;93627.22;5068349;28;20036;-93
2023/12/03 10:14:09;;;;;;;16.95;4.05;;;;;;;16.37;39.43;93632.69;5056423;28;20032;-93
2023/12/03 10:16:34;;;;;;;20.90;4.57;;;;;;;16.37;39.44;93629.22;5060388;28;20103;-90
2023/12/03 10:19:00;;;;;;;18.08;3.63;;;;;;;16.38;39.48;93631.44;5072532;28;20522;-90
2023/12/03 10:21:25;;;;;;;19.25;3.90;;;;;;;16.36;39.48;93636.66;5052088;28;20025;-89
2023/12/03 10:23:58;;;;;;;18.35;3.42;;;;;;;16.39;39.14;93630.22;5066659;28;20028;-89
2023/12/03 10:26:23;;;;;;;15.55;4.05;;;;;;;16.40;39.25;93639.88;5058492;28;20120;-90
2023/12/03 10:28:49;;;;;;;16.23;3.47;;;;;;;16.37;39.56;93651.03;5061985;28;20028;-91
2023/12/03 10:31:15;;;;;;;13.48;3.38;;;;;;;16.33;39.37;93653.25;5082189;28;20543;-91
2023/12/03 10:33:42;;;;;;;10.85;3.22;;;;;;;16.39;39.40;93660.22;5055185;28;20024;-92
2023/12/03 10:36:09;;;;;;;9.73;2.67;;;;;;;16.37;39.39;93664.69;5050427;28;20106;-89
2023/12/03 10:38:38;;;;;;;15.25;3.47;;;;;;;16.42;39.26;93670.16;5043709;28;20051;-90
2023/12/03 10:41:07;;;;;;;7.25;2.75;;;;;;;16.41;39.14;93667.91;5042940;28;20028;-90
2023/12/03 10:43:37;;;;;;;11.82;3.00;;;;;;;16.44;39.19;93673.16;5084592;28;20074;-92
2023/12/03 10:46:06;;;;;;;16.42;4.32;;;;;;;16.40;39.23;93666.44;5051514;28;20107;-92
2023/12/03 10:48:33;;;;;;;14.70;4.10;;;;;;;16.44;39.28;93664.22;5080866;28;20467;-90
2023/12/03 10:51:03;;;;;;;20.00;4.70;;;;;;;16.46;39.07;93661.72;5058348;28;20044;-92
2023/12/03 10:53:30;;;;;;;15.38;5.15;;;;;;;16.48;39.10;93664.69;5084221;28;20119;-88
2023/12/03 10:55:56;;;;;;;18.50;6.43;;;;;;;16.42;39.29;93666.69;5038021;28;20036;-91
2023/12/03 10:58:21;;;;;;;27.30;5.90;;;;;;;16.44;39.77;93681.34;5061014;28;20028;-90
2023/12/03 11:00:51;;;;;;;26.70;6.90;;;;;;;16.50;39.34;93675.88;5050800;28;20040;-90
2023/12/03 11:03:35;;;;;;;24.23;8.20;;;;;;;16.46;39.11;93669.91;5042264;28;20119;-91
2023/12/03 11:06:02;;;;;;;34.78;11.80;;;;;;;16.44;39.34;93673.16;5086032;28;20024;-91
2023/12/03 11:08:27;;;;;;;44.13;12.25;;;;;;;16.50;38.98;93662.22;5062670;28;20028;-89
2023/12/03 11:10:53;;;;;;;81.30;31.52;;;;;;;16.42;39.35;93663.97;5041702;28;20039;-89
2023/12/03 11:13:18;;;;;;;142.90;47.70;;;;;;;16.33;39.45;93664.91;5053617;28;20020;-89
2023/12/03 11:15:44;;;;;;;61.10;25.13;;;;;;;16.43;39.37;93666.19;5059254;28;20556;-90
2023/12/03 11:18:09;;;;;;;92.20;35.65;;;;;;;16.45;40.04;93660.97;5071319;28;20463;-89
2023/12/03 11:20:35;;;;;;;112.15;42.58;;;;;;;16.42;39.60;93666.69;5063878;28;20028;-89
2023/12/03 11:23:01;;;;;;;97.50;40.75;;;;;;;16.46;39.34;93664.44;5080869;28;20024;-89
2023/12/03 11:25:33;;;;;;;86.10;37.45;;;;;;;16.39;39.48;93662.94;5090142;28;20040;-90